createdAt,value
2019-01-31T00:09:49.476Z,96.30
2019-01-31T00:19:49.592Z,96.30
2019-01-31T00:29:49.469Z,96.35
2019-01-31T00:39:49.538Z,96.92
2019-01-31T00:49:49.618Z,96.79
2019-01-31T00:59:49.560Z,96.79
2019-01-31T01:09:49.540Z,96.74
2019-01-31T01:19:49.663Z,97.13
2019-01-31T01:29:49.537Z,97.21
2019-01-31T01:39:49.588Z,97.49
2019-01-31T01:49:49.507Z,97.52
2019-01-31T01:59:49.555Z,97.86
2019-01-31T02:09:49.531Z,98.05
2019-01-31T02:19:49.502Z,98.07
2019-01-31T02:29:50.356Z,98.60
2019-01-31T02:39:49.478Z,98.75
2019-01-31T02:49:49.551Z,98.96
2019-01-31T02:59:50.055Z,97.74
2019-01-31T03:09:54.948Z,99.25
2019-01-31T03:19:49.496Z,97.91
2019-01-31T03:29:49.433Z,98.75
2019-01-31T03:39:49.439Z,98.28
2019-01-31T03:49:49.516Z,98.92
2019-01-31T03:59:49.538Z,99.27
2019-01-31T04:09:51.114Z,98.87
2019-01-31T04:19:49.449Z,98.82
2019-01-31T04:29:52.444Z,99.51
2019-01-31T04:39:49.454Z,99.54
2019-01-31T04:49:49.533Z,99.86
2019-01-31T04:59:49.445Z,100.00
2019-01-31T05:09:49.358Z,99.80
2019-01-31T05:19:49.466Z,99.95
2019-01-31T05:29:49.501Z,99.78
2019-01-31T05:39:49.472Z,99.71
2019-01-31T05:49:49.487Z,99.97
2019-01-31T05:59:49.372Z,100.00
2019-01-31T06:09:49.333Z,100.00
2019-01-31T06:19:49.440Z,99.90
2019-01-31T06:29:49.431Z,99.29
2019-01-31T06:39:49.394Z,100.00
2019-01-31T06:49:49.437Z,99.48
2019-01-31T06:59:49.441Z,100.00
2019-01-31T07:09:49.788Z,100.00
2019-01-31T07:19:49.433Z,100.00
2019-01-31T07:29:49.417Z,100.00
2019-01-31T07:39:49.434Z,100.00
2019-01-31T07:49:49.478Z,100.00
2019-01-31T07:59:49.469Z,100.00
2019-01-31T08:09:49.403Z,100.00
2019-01-31T08:19:49.457Z,99.99
2019-01-31T08:29:49.441Z,100.00
2019-01-31T08:39:49.424Z,100.00
2019-01-31T08:49:49.397Z,100.00
2019-01-31T08:59:49.484Z,100.00
2019-01-31T09:09:49.500Z,96.62
2019-01-31T09:19:49.437Z,89.02
2019-01-31T09:29:49.443Z,80.91
2019-01-31T09:39:49.482Z,74.59
2019-01-31T09:49:49.371Z,77.95
2019-01-31T09:59:49.630Z,73.55
2019-01-31T10:09:49.354Z,73.10
2019-01-31T10:19:49.479Z,69.18
2019-01-31T10:29:49.359Z,74.43
2019-01-31T10:39:49.367Z,75.93
2019-01-31T10:49:49.455Z,74.92
2019-01-31T10:59:49.311Z,77.26
2019-01-31T11:09:49.319Z,73.57
2019-01-31T11:19:49.409Z,69.62
2019-01-31T11:29:49.411Z,62.67
2019-01-31T11:39:49.615Z,60.89
2019-01-31T11:49:49.991Z,61.08
2019-01-31T11:59:49.391Z,64.12
2019-01-31T12:09:49.954Z,67.18
2019-01-31T12:19:49.388Z,62.42
2019-01-31T12:29:49.460Z,60.00
2019-01-31T12:39:52.077Z,63.15
2019-01-31T12:49:52.706Z,59.85
2019-01-31T12:59:49.890Z,64.70
2019-01-31T13:09:49.351Z,59.24
2019-01-31T13:19:49.448Z,60.75
2019-01-31T13:29:49.299Z,58.97
2019-01-31T13:39:49.468Z,58.93
2019-01-31T13:49:49.435Z,57.42
2019-01-31T13:59:49.488Z,56.46
2019-01-31T14:09:49.412Z,56.33
2019-01-31T14:19:49.551Z,56.29
2019-01-31T14:29:49.519Z,57.37
2019-01-31T14:39:49.443Z,57.21
2019-01-31T14:49:50.237Z,59.07
2019-01-31T14:59:49.360Z,59.60
2019-01-31T15:09:49.400Z,61.51
2019-01-31T15:19:49.483Z,66.42
2019-01-31T15:29:49.443Z,73.68
2019-01-31T15:39:49.445Z,76.04
2019-01-31T15:49:49.441Z,78.13
2019-01-31T15:59:49.399Z,79.29
2019-01-31T16:09:49.455Z,81.27
2019-01-31T16:19:49.619Z,84.25
2019-01-31T16:29:49.490Z,85.72
2019-01-31T16:39:49.384Z,87.39
2019-01-31T16:49:49.401Z,89.02
2019-01-31T16:59:49.394Z,90.49
2019-01-31T17:09:49.417Z,90.08
2019-01-31T17:19:50.011Z,89.06
2019-01-31T17:29:49.415Z,90.41
2019-01-31T17:39:49.401Z,90.83
2019-01-31T17:49:49.433Z,89.62
2019-01-31T17:59:50.693Z,89.13
2019-01-31T18:09:49.548Z,89.58
2019-01-31T18:19:49.450Z,89.69
2019-01-31T18:29:49.488Z,92.34
2019-01-31T18:39:49.555Z,93.51
2019-01-31T18:49:49.451Z,92.07
2019-01-31T18:59:49.349Z,89.99
2019-01-31T19:09:49.427Z,89.82
2019-01-31T19:19:49.434Z,89.58
2019-01-31T19:29:49.381Z,91.92
2019-01-31T19:39:49.399Z,92.31
2019-01-31T19:49:49.260Z,92.64
2019-01-31T19:59:49.260Z,92.04
2019-01-31T20:09:49.408Z,92.75
2019-01-31T20:19:49.329Z,92.32
2019-01-31T20:29:49.409Z,91.71
2019-01-31T20:39:49.427Z,92.41
2019-01-31T20:49:49.588Z,91.81
2019-01-31T20:59:49.427Z,91.50
2019-01-31T21:09:49.318Z,90.59
2019-01-31T21:19:49.881Z,91.19
2019-01-31T21:29:51.670Z,90.10
2019-01-31T21:39:49.346Z,89.73
2019-01-31T21:49:49.314Z,88.26
2019-01-31T21:59:49.397Z,88.72
2019-01-31T22:09:50.505Z,89.41
2019-01-31T22:19:49.502Z,89.13
2019-01-31T22:29:49.246Z,89.63
2019-01-31T22:39:49.349Z,89.61
2019-01-31T22:49:49.428Z,88.63
2019-01-31T22:59:49.356Z,88.94
2019-01-31T23:09:49.369Z,89.52
2019-01-31T23:19:49.184Z,87.71
2019-01-31T23:29:49.314Z,85.80
2019-01-31T23:39:49.259Z,85.42
2019-01-31T23:49:49.191Z,85.80
2019-01-31T23:59:49.341Z,84.17
